Aérodrome :
LOGIN :

S'inscrire | Disclaimer

   EN    FR    IT 

 










Légende :    VFR   VFR Marginal   IFR   IFR Intensif   IFR Très Intensif
Visi : 
Plafond : 
>= 8 km
>= 3000ft
5 à 8 km
1000 à 3000 ft
1500m à 5 km
500 à 1000 ft
800 à 1500m
200 à 500 ft
< 800m
< 200 ft
Symboles :   Orages  Brouillard  Fortes neiges  Fortes précipitations  Vent > 20 kt
SIGMETs :   Divers  Orages  Givrage  Turbulence  Onde Orograph.  Cendres Volcan.







- Altitude de l'aérodrome : 197 ft
- Code IATA : XOG
- Voir les cartes d'approche


LFMO - Orange

DERNIER METAR :
  • 170730Z AUTO 34017KT CAVOK 26/14 Q1015 BECMG 34015G25KT

METARs EXPIRÉS :
  • 170700Z AUTO 34012KT 320V020 CAVOK 25/15 Q1015 BECMG 34015G25KT
  • 170630Z AUTO 35014KT CAVOK 24/15 Q1015 BECMG 34015G25KT
  • 170600Z AUTO 34013KT CAVOK 23/14 Q1015 BECMG 34015G25KT
  • 170530Z AUTO 34013KT CAVOK 23/14 Q1015 BECMG 34015G25KT
  • 170500Z AUTO 34013KT CAVOK 22/14 Q1015 BECMG 34015G25KT

TAF TAF LFMO
Valide du 17 à 03h jusqu'au 18 à 03h UTC


170200Z 1703/1803 33010KT CAVOK
BECMG 1704/1706 34015G25KT
BECMG 1720/1722 34015KT
Pas de NOTAMs connus pour ce terrain.



MET'MAP, la Météo Aéronautique d'un coup d'oeil ! - Copyright ORBIFLY Décembre 2007 - Disclaimer

ORBIFLY MET'MAP TEAM :

Programmation & Développement : Alexandra Zaïnal
Conception & Développement : Baudouin d'Aumeries
Co-Programmation & Développement : Marc-Olivier Méhu
Soutien technique & logistique : Manuel Goepfert

Contact : metmap@orbifly.com




SOURCES & CREDITS :

   NOAA